Puerto Real, Puerto Rico
Current Conditions -  °F | °C
As of 4:53 AM on Thursday 23 Oct 2014 (Local Time) from TJNR Reporting Station
Broken Clouds Broken Clouds  
Wind Chill: 76°   Ceiling: 6000
Heat Index: 76°   Visibility: 10mi
Dew Point: 73°   Wind: 3mph
Humidity: 91%   Direction: 260°W
Pressure: 29.94"   Gusts: NA
Location:  18.32°N, 65.65°W
Report Text: TJNR 230853Z AUTO 26003KT 10SM SCT026 BKN060 BKN080 24/23 A2994 RMK AO2 RAE45 SLP138 P0002 60020 T02440228 58005
Loading
Personal Weather Stations






























Interactive Weather Map
Tropical Storm Tracking
New forecast layout! Learn more

10-Day Weather Forecast

Advertisements
Track Severe Weather on mobile